createdAt,value
2019-01-13T00:01:58.303Z,0.32
2019-01-13T00:04:27.692Z,0.29
2019-01-13T00:06:57.179Z,0.25
2019-01-13T00:09:26.855Z,0.22
2019-01-13T00:11:56.344Z,0.15
2019-01-13T00:14:26.887Z,0.07
2019-01-13T00:16:56.425Z,0.05
2019-01-13T00:19:25.919Z,0.04
2019-01-13T00:21:55.403Z,-0.03
2019-01-13T00:24:24.838Z,-0.05
2019-01-13T00:26:54.227Z,-0.14
2019-01-13T00:29:23.734Z,-0.20
2019-01-13T00:31:53.274Z,-0.32
2019-01-13T00:34:22.668Z,-0.37
2019-01-13T00:36:52.068Z,-0.39
2019-01-13T00:39:21.598Z,-0.43
2019-01-13T00:41:51.174Z,-0.47
2019-01-13T00:44:20.562Z,-0.48
2019-01-13T00:46:49.995Z,-0.46
2019-01-13T00:49:20.047Z,-0.48
2019-01-13T00:51:49.646Z,-0.51
2019-01-13T00:54:19.234Z,-0.47
2019-01-13T00:56:48.610Z,-0.54
2019-01-13T00:59:18.131Z,-0.57
2019-01-13T01:01:47.674Z,-0.53
2019-01-13T01:04:17.079Z,-0.48
2019-01-13T01:06:46.593Z,-0.48
2019-01-13T01:09:16.183Z,-0.49
2019-01-13T01:11:45.595Z,-0.47
2019-01-13T01:14:15.163Z,-0.49
2019-01-13T01:16:44.763Z,-0.54
2019-01-13T01:19:14.211Z,-0.49
2019-01-13T01:21:43.617Z,-0.48
2019-01-13T01:24:13.162Z,-0.42
2019-01-13T01:26:42.754Z,-0.43
2019-01-13T01:29:12.147Z,-0.51
2019-01-13T01:31:41.590Z,-0.56
2019-01-13T01:34:11.097Z,-0.60
2019-01-13T01:36:40.585Z,-0.62
2019-01-13T01:39:10.018Z,-0.60
2019-01-13T01:41:39.474Z,-0.61
2019-01-13T01:44:08.933Z,-0.63
2019-01-13T01:46:38.512Z,-0.61
2019-01-13T01:49:08.028Z,-0.56
2019-01-13T01:51:37.530Z,-0.55
2019-01-13T01:54:06.976Z,-0.64
2019-01-13T01:56:36.364Z,-0.52
2019-01-13T01:59:05.950Z,-0.55
2019-01-13T02:01:35.498Z,-0.60
2019-01-13T02:04:04.891Z,-0.62
2019-01-13T02:06:34.411Z,-0.60
2019-01-13T02:09:07.649Z,-0.63
2019-01-13T02:11:37.139Z,-0.63
2019-01-13T02:14:06.577Z,-0.62
2019-01-13T02:16:36.044Z,-0.71
2019-01-13T02:19:05.547Z,-0.63
2019-01-13T02:21:35.058Z,-0.66
2019-01-13T02:24:04.647Z,-0.72
2019-01-13T02:26:34.128Z,-0.67
2019-01-13T02:29:03.511Z,-0.71
2019-01-13T02:31:32.941Z,-0.79
2019-01-13T02:34:02.449Z,-0.76
2019-01-13T02:36:31.931Z,-0.76
2019-01-13T02:39:01.378Z,-0.75
2019-01-13T02:41:30.771Z,-0.73
2019-01-13T02:44:00.266Z,-0.78
2019-01-13T02:46:29.959Z,-0.79
2019-01-13T02:48:59.349Z,-0.80
2019-01-13T02:51:28.747Z,-0.83
2019-01-13T02:53:58.427Z,-0.87
2019-01-13T02:56:27.941Z,-0.94
2019-01-13T02:58:57.382Z,-1.00
2019-01-13T03:01:26.793Z,-1.09
2019-01-13T03:03:56.345Z,-1.08
2019-01-13T03:06:25.743Z,-1.06
2019-01-13T03:08:55.461Z,-1.07
2019-01-13T03:11:24.961Z,-1.11
2019-01-13T03:13:54.392Z,-1.10
2019-01-13T03:16:23.819Z,-1.14
2019-01-13T03:18:53.937Z,-1.17
2019-01-13T03:21:23.437Z,-1.11
2019-01-13T03:23:52.912Z,-1.15
2019-01-13T03:26:22.306Z,-1.22
2019-01-13T03:28:51.800Z,-1.29
2019-01-13T03:31:21.344Z,-1.32
2019-01-13T03:33:50.726Z,-1.48
2019-01-13T03:36:20.131Z,-1.46
2019-01-13T03:38:50.508Z,-1.81
2019-01-13T03:41:20.012Z,-1.88
2019-01-13T03:43:49.389Z,-1.88
2019-01-13T03:46:19.069Z,-1.84
2019-01-13T03:48:48.931Z,-1.99
2019-01-13T03:51:18.331Z,-2.03
2019-01-13T03:53:47.864Z,-2.07
2019-01-13T03:56:17.369Z,-2.14
2019-01-13T03:58:46.766Z,-2.17
2019-01-13T04:01:18.661Z,-2.27
2019-01-13T04:03:47.413Z,-2.28
2019-01-13T04:06:16.931Z,-2.13
2019-01-13T04:08:46.414Z,-2.13
2019-01-13T04:11:15.880Z,-2.20
2019-01-13T04:13:45.364Z,-2.15
2019-01-13T04:16:14.928Z,-2.09
2019-01-13T04:18:44.331Z,-1.84
2019-01-13T04:21:13.781Z,-1.71
2019-01-13T04:23:43.428Z,-1.62
2019-01-13T04:26:12.816Z,-1.60
2019-01-13T04:28:42.313Z,-1.71
2019-01-13T04:31:11.857Z,-1.67
2019-01-13T04:33:41.261Z,-1.71
2019-01-13T04:36:10.689Z,-1.81
2019-01-13T04:38:40.223Z,-1.80
2019-01-13T04:41:09.726Z,-1.91
2019-01-13T04:43:39.199Z,-1.92
2019-01-13T04:46:08.678Z,-1.90
2019-01-13T04:48:38.183Z,-1.80
2019-01-13T04:51:07.707Z,-1.89
2019-01-13T04:53:37.281Z,-1.84
2019-01-13T04:56:06.701Z,-1.87
2019-01-13T04:58:38.738Z,-1.86
2019-01-13T05:01:08.280Z,-1.85
2019-01-13T05:03:37.680Z,-1.80
2019-01-13T05:06:07.186Z,-1.84
2019-01-13T05:08:36.626Z,-1.85
2019-01-13T05:11:06.037Z,-1.83
2019-01-13T05:13:35.563Z,-1.81
2019-01-13T05:16:05.212Z,-1.60
2019-01-13T05:18:34.606Z,-1.59
2019-01-13T05:21:04.006Z,-1.58
2019-01-13T05:23:33.549Z,-1.26
2019-01-13T05:26:03.045Z,-0.89
2019-01-13T05:28:32.442Z,-0.54
2019-01-13T05:31:01.863Z,-0.34
2019-01-13T05:33:31.360Z,-0.12
2019-01-13T05:36:00.916Z,0.03
2019-01-13T05:38:30.355Z,0.17
2019-01-13T05:40:59.760Z,0.23
2019-01-13T05:43:29.295Z,0.22
2019-01-13T05:45:58.813Z,0.20
2019-01-13T05:48:28.199Z,0.26
2019-01-13T05:50:57.717Z,0.28
2019-01-13T05:53:27.248Z,0.31
2019-01-13T05:55:56.779Z,0.35
2019-01-13T05:58:26.798Z,0.37
2019-01-13T06:00:56.434Z,0.36
2019-01-13T06:03:25.903Z,0.48
2019-01-13T06:05:55.681Z,0.57
2019-01-13T06:08:25.118Z,0.59
2019-01-13T06:10:54.535Z,0.60
2019-01-13T06:13:24.024Z,0.68
2019-01-13T06:15:53.672Z,0.71
2019-01-13T06:18:23.066Z,0.72
2019-01-13T06:20:52.459Z,0.79
2019-01-13T06:23:21.984Z,0.81
2019-01-13T06:25:51.416Z,0.93
2019-01-13T06:28:20.919Z,0.90
2019-01-13T06:30:50.654Z,0.96
2019-01-13T06:33:20.073Z,0.99
2019-01-13T06:35:49.500Z,1.10
2019-01-13T06:38:19.076Z,1.14
2019-01-13T06:40:48.564Z,1.13
2019-01-13T06:43:18.062Z,1.16
2019-01-13T06:45:47.638Z,1.21
2019-01-13T06:48:17.149Z,1.23
2019-01-13T06:50:46.659Z,1.28
2019-01-13T06:53:16.507Z,1.27
2019-01-13T06:55:45.926Z,1.43
2019-01-13T06:58:15.430Z,1.50
2019-01-13T07:00:44.981Z,1.53
2019-01-13T07:03:14.417Z,1.63
2019-01-13T07:05:44.154Z,1.72
2019-01-13T07:08:13.597Z,1.81
2019-01-13T07:10:42.996Z,1.92
2019-01-13T07:13:12.459Z,1.93
2019-01-13T07:15:41.981Z,1.93
2019-01-13T07:18:11.370Z,1.92
2019-01-13T07:20:40.761Z,2.03
2019-01-13T07:23:10.296Z,2.17
2019-01-13T07:25:39.779Z,2.19
2019-01-13T07:28:09.173Z,2.23
2019-01-13T07:30:38.599Z,2.28
2019-01-13T07:33:08.076Z,2.37
2019-01-13T07:35:37.632Z,2.41
2019-01-13T07:38:07.191Z,2.40
2019-01-13T07:40:36.665Z,2.47
2019-01-13T07:43:06.272Z,2.52
2019-01-13T07:45:35.926Z,2.61
2019-01-13T07:48:05.482Z,2.64
2019-01-13T07:50:35.048Z,2.65
2019-01-13T07:53:04.818Z,2.71
2019-01-13T07:55:34.356Z,2.77
2019-01-13T07:58:03.981Z,2.80
2019-01-13T08:03:03.329Z,2.89
2019-01-13T08:05:32.770Z,2.86
2019-01-13T08:08:02.301Z,2.86
2019-01-13T08:10:31.872Z,2.99
2019-01-13T08:13:01.405Z,3.08
2019-01-13T08:15:31.039Z,3.13
2019-01-13T08:18:00.511Z,3.16
2019-01-13T08:20:34.195Z,3.15
2019-01-13T08:23:03.774Z,3.23
2019-01-13T08:25:33.315Z,3.29
2019-01-13T08:28:02.788Z,3.36
2019-01-13T08:30:32.200Z,3.40
2019-01-13T08:33:01.699Z,3.44
2019-01-13T08:35:31.425Z,3.49
2019-01-13T08:38:00.890Z,3.59
2019-01-13T08:40:30.356Z,3.64
2019-01-13T08:43:00.075Z,3.74
2019-01-13T08:45:29.680Z,3.70
2019-01-13T08:47:59.138Z,3.73
2019-01-13T08:50:28.738Z,3.71
2019-01-13T08:52:59.064Z,3.74
2019-01-13T08:55:30.083Z,3.82
2019-01-13T08:57:59.685Z,3.86
2019-01-13T09:00:35.803Z,3.89
2019-01-13T09:03:07.062Z,3.86
2019-01-13T09:05:36.619Z,3.90
2019-01-13T09:08:07.124Z,3.99
2019-01-13T09:10:36.769Z,4.11
2019-01-13T09:13:06.315Z,4.14
2019-01-13T09:15:35.792Z,4.19
2019-01-13T09:18:05.659Z,4.16
2019-01-13T09:20:35.239Z,4.16
2019-01-13T09:23:05.340Z,4.26
2019-01-13T09:25:36.649Z,4.33
2019-01-13T09:28:06.922Z,4.44
2019-01-13T09:30:36.530Z,4.47
2019-01-13T09:33:06.254Z,4.43
2019-01-13T09:35:35.745Z,4.42
2019-01-13T09:38:06.745Z,4.55
2019-01-13T09:40:36.865Z,4.68
2019-01-13T09:43:06.962Z,4.76
2019-01-13T09:45:36.681Z,4.77
2019-01-13T09:48:06.339Z,4.78
2019-01-13T09:50:35.750Z,4.95
2019-01-13T09:53:05.762Z,4.75
2019-01-13T09:55:35.358Z,4.85
2019-01-13T09:58:04.919Z,4.90
2019-01-13T10:00:35.929Z,4.98
2019-01-13T10:03:06.657Z,5.15
2019-01-13T10:05:36.258Z,5.23
2019-01-13T10:08:06.416Z,5.24
2019-01-13T10:10:35.923Z,5.21
2019-01-13T10:13:05.498Z,5.14
2019-01-13T10:15:35.134Z,5.25
2019-01-13T10:18:04.656Z,5.36
2019-01-13T10:20:34.035Z,5.38
2019-01-13T10:23:04.654Z,5.47
2019-01-13T10:25:34.120Z,5.51
2019-01-13T10:28:03.828Z,5.61
2019-01-13T10:30:34.082Z,5.70
2019-01-13T10:33:03.708Z,5.98
2019-01-13T10:35:33.212Z,6.15
2019-01-13T10:38:02.744Z,6.21
2019-01-13T10:40:32.674Z,6.33
2019-01-13T10:43:02.479Z,6.37
2019-01-13T10:45:32.018Z,6.52
2019-01-13T10:48:01.605Z,6.56
2019-01-13T10:50:32.407Z,6.55
2019-01-13T10:53:06.751Z,6.63
2019-01-13T10:55:36.167Z,6.64
2019-01-13T10:58:05.924Z,6.73
2019-01-13T11:00:37.140Z,6.86
2019-01-13T11:03:06.974Z,6.71
2019-01-13T11:05:36.686Z,6.57
2019-01-13T11:08:11.425Z,6.58
2019-01-13T11:10:38.413Z,6.61
2019-01-13T11:13:07.813Z,6.66
2019-01-13T11:15:37.275Z,6.68
2019-01-13T11:18:07.278Z,6.61
2019-01-13T11:20:40.569Z,6.59
2019-01-13T11:23:10.656Z,6.45
2019-01-13T11:25:40.140Z,6.48
2019-01-13T11:28:09.677Z,6.35
2019-01-13T11:30:39.371Z,6.34
2019-01-13T11:33:09.763Z,6.33
2019-01-13T11:35:39.363Z,6.49
2019-01-13T11:38:09.634Z,6.56
2019-01-13T11:40:39.464Z,6.66
2019-01-13T11:43:08.916Z,6.72
2019-01-13T11:45:38.733Z,6.79
2019-01-13T11:48:08.221Z,6.75
2019-01-13T11:50:37.626Z,6.82
2019-01-13T11:53:07.259Z,6.88
2019-01-13T11:55:36.778Z,6.98
2019-01-13T11:58:06.299Z,6.93
2019-01-13T12:00:38.784Z,6.98
2019-01-13T12:03:08.375Z,6.91
2019-01-13T12:05:38.173Z,6.65
2019-01-13T12:08:07.877Z,6.48
2019-01-13T12:10:37.373Z,6.44
2019-01-13T12:13:07.771Z,6.54
2019-01-13T12:15:37.291Z,6.63
2019-01-13T12:18:07.376Z,6.67
2019-01-13T12:20:36.792Z,6.67
2019-01-13T12:23:06.406Z,6.72
2019-01-13T12:25:35.920Z,6.82
2019-01-13T12:28:05.822Z,6.86
2019-01-13T12:30:35.451Z,6.79
2019-01-13T12:33:05.553Z,6.80
2019-01-13T12:35:34.998Z,6.81
2019-01-13T12:38:04.853Z,6.76
2019-01-13T12:40:34.399Z,6.56
2019-01-13T12:43:05.592Z,6.56
2019-01-13T12:45:35.086Z,6.72
2019-01-13T12:48:05.006Z,6.79
2019-01-13T12:50:34.610Z,6.86
2019-01-13T12:53:04.294Z,6.94
2019-01-13T12:55:33.840Z,7.03
2019-01-13T12:58:03.324Z,6.88
2019-01-13T13:00:33.041Z,6.88
2019-01-13T13:03:02.444Z,6.84
2019-01-13T13:05:31.970Z,6.85
2019-01-13T13:08:01.416Z,6.95
2019-01-13T13:10:36.592Z,6.98
2019-01-13T13:13:06.823Z,7.11
2019-01-13T13:15:36.417Z,7.07
2019-01-13T13:18:06.028Z,7.16
2019-01-13T13:20:35.668Z,7.00
2019-01-13T13:23:05.373Z,6.93
2019-01-13T13:25:34.964Z,6.73
2019-01-13T13:28:04.617Z,6.82
2019-01-13T13:30:34.042Z,6.86
2019-01-13T13:33:03.647Z,6.80
2019-01-13T13:35:39.678Z,6.63
2019-01-13T13:38:04.701Z,6.63
2019-01-13T13:40:34.231Z,6.55
2019-01-13T13:43:03.763Z,6.58
2019-01-13T13:45:33.194Z,6.63
2019-01-13T13:48:02.811Z,6.69
2019-01-13T13:50:32.516Z,6.68
2019-01-13T13:53:01.926Z,6.65
2019-01-13T13:55:31.391Z,6.58
2019-01-13T13:58:02.326Z,6.51
2019-01-13T14:00:35.151Z,6.63
2019-01-13T14:03:04.777Z,6.68
2019-01-13T14:05:34.406Z,6.67
2019-01-13T14:08:04.500Z,6.62
2019-01-13T14:10:43.878Z,6.64
2019-01-13T14:13:13.732Z,6.51
2019-01-13T14:15:43.138Z,6.43
2019-01-13T14:18:13.147Z,6.39
2019-01-13T14:20:42.763Z,6.33
2019-01-13T14:23:12.170Z,6.19
2019-01-13T14:25:41.665Z,6.07
2019-01-13T14:28:11.077Z,6.03
2019-01-13T14:30:40.479Z,5.97
2019-01-13T14:33:10.197Z,5.99
2019-01-13T14:35:39.795Z,5.93
2019-01-13T14:38:09.312Z,5.86
2019-01-13T14:40:38.879Z,5.92
2019-01-13T14:43:08.383Z,5.98
2019-01-13T14:45:37.874Z,5.99
2019-01-13T14:48:07.330Z,5.95
2019-01-13T14:50:36.764Z,5.86
2019-01-13T14:53:07.983Z,5.76
2019-01-13T14:55:37.535Z,5.69
2019-01-13T14:58:08.300Z,5.67
2019-01-13T15:00:37.726Z,5.65
2019-01-13T15:03:07.565Z,5.65
2019-01-13T15:05:37.038Z,5.79
2019-01-13T15:08:08.110Z,5.72
2019-01-13T15:10:37.659Z,5.67
2019-01-13T15:13:07.100Z,5.62
2019-01-13T15:15:36.600Z,5.62
2019-01-13T15:18:06.892Z,5.54
2019-01-13T15:20:36.387Z,5.53
2019-01-13T15:23:06.121Z,5.50
2019-01-13T15:25:35.610Z,5.49
2019-01-13T15:28:05.344Z,5.49
2019-01-13T15:30:36.976Z,5.39
2019-01-13T15:33:10.072Z,5.26
2019-01-13T15:35:39.620Z,5.28
2019-01-13T15:38:10.240Z,5.28
2019-01-13T15:40:40.214Z,5.28
2019-01-13T15:43:09.666Z,5.28
2019-01-13T15:45:39.269Z,5.39
2019-01-13T15:48:09.437Z,5.25
2019-01-13T15:50:38.975Z,5.20
2019-01-13T15:53:08.584Z,5.28
2019-01-13T15:55:38.185Z,5.26
2019-01-13T15:58:07.780Z,5.12
2019-01-13T16:00:38.474Z,5.01
2019-01-13T16:03:11.424Z,4.86
2019-01-13T16:05:41.036Z,4.79
2019-01-13T16:08:10.610Z,4.73
2019-01-13T16:10:40.499Z,4.80
2019-01-13T16:13:10.116Z,4.95
2019-01-13T16:15:39.825Z,4.93
2019-01-13T16:18:09.965Z,4.95
2019-01-13T16:20:41.393Z,4.91
2019-01-13T16:23:11.064Z,4.89
2019-01-13T16:25:40.806Z,4.86
2019-01-13T16:28:10.229Z,4.86
2019-01-13T16:30:39.755Z,4.87
2019-01-13T16:33:09.456Z,4.85
2019-01-13T16:35:39.558Z,4.83
2019-01-13T16:38:08.991Z,4.83
2019-01-13T16:40:38.618Z,4.82
2019-01-13T16:43:08.161Z,4.83
2019-01-13T16:45:37.689Z,4.78
2019-01-13T16:48:07.626Z,4.82
2019-01-13T16:50:37.068Z,4.90
2019-01-13T16:53:06.729Z,5.00
2019-01-13T16:55:36.306Z,5.02
2019-01-13T16:58:06.268Z,4.93
2019-01-13T17:00:35.896Z,4.80
2019-01-13T17:03:05.944Z,4.74
2019-01-13T17:05:35.785Z,4.75
2019-01-13T17:08:05.539Z,4.74
2019-01-13T17:10:35.152Z,4.72
2019-01-13T17:13:04.576Z,4.63
2019-01-13T17:15:35.623Z,4.58
2019-01-13T17:18:05.819Z,4.59
2019-01-13T17:20:35.459Z,4.58
2019-01-13T17:23:05.135Z,4.59
2019-01-13T17:25:35.358Z,4.56
2019-01-13T17:28:05.176Z,4.50
2019-01-13T17:30:36.028Z,4.49
2019-01-13T17:33:06.178Z,4.46
2019-01-13T17:35:35.726Z,4.47
2019-01-13T17:38:06.137Z,4.45
2019-01-13T17:40:35.918Z,4.44
2019-01-13T17:43:05.590Z,4.40
2019-01-13T17:45:35.552Z,4.36
2019-01-13T17:48:06.341Z,4.27
2019-01-13T17:50:35.757Z,4.25
2019-01-13T17:53:07.786Z,4.21
2019-01-13T17:55:37.549Z,4.20
2019-01-13T17:58:07.136Z,4.15
2019-01-13T18:01:10.369Z,4.07
2019-01-13T18:03:43.168Z,4.10
2019-01-13T18:06:12.664Z,3.98
2019-01-13T18:08:42.571Z,3.84
2019-01-13T18:11:11.977Z,3.74
2019-01-13T18:13:41.502Z,3.67
2019-01-13T18:16:11.213Z,3.73
2019-01-13T18:18:40.953Z,3.69
2019-01-13T18:21:10.366Z,3.56
2019-01-13T18:23:39.960Z,3.51
2019-01-13T18:26:09.482Z,3.49
2019-01-13T18:28:39.037Z,3.54
2019-01-13T18:31:08.664Z,3.61
2019-01-13T18:33:38.123Z,3.61
2019-01-13T18:36:08.032Z,3.62
2019-01-13T18:38:37.654Z,3.60
2019-01-13T18:41:07.155Z,3.59
2019-01-13T18:43:36.580Z,3.64
2019-01-13T18:46:06.851Z,3.64
2019-01-13T18:48:36.456Z,3.66
2019-01-13T18:51:06.206Z,3.65
2019-01-13T18:53:35.666Z,3.63
2019-01-13T18:56:05.119Z,3.69
2019-01-13T18:58:34.788Z,3.66
2019-01-13T19:01:05.165Z,3.65
2019-01-13T19:03:34.581Z,3.68
2019-01-13T19:06:04.033Z,3.68
2019-01-13T19:08:33.646Z,3.60
2019-01-13T19:11:33.931Z,3.71
2019-01-13T19:14:20.199Z,3.70
2019-01-13T19:16:57.098Z,3.74
2019-01-13T19:19:26.685Z,3.70
2019-01-13T19:21:56.195Z,3.70
2019-01-13T19:24:25.618Z,3.66
2019-01-13T19:26:55.090Z,3.74
2019-01-13T19:29:24.611Z,3.68
2019-01-13T19:31:54.166Z,3.79
2019-01-13T19:34:23.651Z,3.75
2019-01-13T19:36:53.068Z,3.81
2019-01-13T19:39:22.922Z,3.76
2019-01-13T19:41:52.489Z,3.81
2019-01-13T19:44:21.904Z,3.90
2019-01-13T19:46:51.431Z,3.98
2019-01-13T19:49:20.902Z,4.09
2019-01-13T19:51:50.340Z,4.18
2019-01-13T19:54:19.859Z,4.12
2019-01-13T19:56:49.421Z,4.07
2019-01-13T19:59:19.952Z,4.04
2019-01-13T20:01:49.795Z,4.02
2019-01-13T20:04:19.409Z,3.99
2019-01-13T20:06:48.975Z,3.99
2019-01-13T20:09:18.406Z,3.96
2019-01-13T20:11:48.008Z,3.91
2019-01-13T20:14:17.583Z,3.92
2019-01-13T20:16:47.120Z,3.91
2019-01-13T20:19:16.743Z,3.96
2019-01-13T20:21:46.799Z,4.01
2019-01-13T20:24:16.355Z,4.04
2019-01-13T20:26:45.826Z,4.03
2019-01-13T20:29:15.346Z,4.03
2019-01-13T20:31:44.868Z,4.01
2019-01-13T20:34:14.380Z,3.97
2019-01-13T20:36:43.787Z,3.97
2019-01-13T20:39:13.287Z,3.85
2019-01-13T20:41:42.827Z,3.82
2019-01-13T20:44:12.248Z,3.81
2019-01-13T20:46:41.683Z,3.79
2019-01-13T20:49:11.595Z,3.72
2019-01-13T20:51:41.137Z,3.55
2019-01-13T20:54:10.556Z,3.36
2019-01-13T20:56:40.018Z,3.29
2019-01-13T20:59:09.536Z,3.36
2019-01-13T21:01:39.093Z,3.26
2019-01-13T21:04:08.600Z,3.24
2019-01-13T21:06:38.500Z,3.24
2019-01-13T21:09:10.645Z,3.16
2019-01-13T21:11:40.180Z,3.09
2019-01-13T21:14:09.695Z,2.98
2019-01-13T21:16:39.200Z,3.11
2019-01-13T21:19:08.655Z,3.11
2019-01-13T21:21:38.110Z,3.11
2019-01-13T21:24:07.605Z,3.14
2019-01-13T21:26:37.288Z,3.09
2019-01-13T21:29:06.804Z,3.10
2019-01-13T21:31:36.275Z,3.26
2019-01-13T21:34:05.955Z,3.27
2019-01-13T21:36:35.449Z,3.17
2019-01-13T21:39:07.138Z,3.03
2019-01-13T21:41:36.822Z,2.92
2019-01-13T21:44:06.436Z,2.92
2019-01-13T21:46:35.941Z,2.94
2019-01-13T21:49:05.442Z,2.90
2019-01-13T21:51:34.847Z,2.86
2019-01-13T21:54:10.700Z,2.68
2019-01-13T21:56:35.633Z,2.57
2019-01-13T21:59:05.105Z,2.60
2019-01-13T22:01:35.628Z,2.57
2019-01-13T22:04:05.675Z,2.49
2019-01-13T22:06:35.143Z,2.45
2019-01-13T22:09:08.828Z,2.37
2019-01-13T22:11:38.289Z,2.28
2019-01-13T22:14:07.908Z,2.09
2019-01-13T22:16:37.428Z,2.17
2019-01-13T22:19:06.902Z,2.14
2019-01-13T22:21:36.412Z,2.01
2019-01-13T22:24:06.003Z,1.96
2019-01-13T22:26:35.623Z,1.94
2019-01-13T22:29:05.565Z,1.73
2019-01-13T22:31:35.048Z,1.53
2019-01-13T22:34:04.559Z,1.55
2019-01-13T22:36:34.461Z,1.44
2019-01-13T22:39:07.820Z,1.33
2019-01-13T22:41:37.586Z,1.32
2019-01-13T22:44:07.020Z,1.14
2019-01-13T22:46:36.459Z,1.20
2019-01-13T22:49:06.228Z,1.18
2019-01-13T22:51:35.739Z,1.03
2019-01-13T22:54:05.171Z,1.01
2019-01-13T22:56:34.784Z,0.85
2019-01-13T22:59:04.994Z,0.80
2019-01-13T23:01:42.684Z,0.78
2019-01-13T23:04:19.207Z,0.65
2019-01-13T23:06:48.738Z,0.61
2019-01-13T23:09:18.166Z,0.42
2019-01-13T23:11:47.568Z,0.48
2019-01-13T23:14:17.126Z,0.32
2019-01-13T23:16:46.753Z,0.26
2019-01-13T23:19:16.157Z,0.19
2019-01-13T23:21:45.615Z,0.14
2019-01-13T23:24:15.175Z,0.05
2019-01-13T23:26:44.649Z,0.01
2019-01-13T23:29:14.109Z,-0.11
2019-01-13T23:31:43.555Z,-0.11
2019-01-13T23:34:13.086Z,-0.13
2019-01-13T23:36:42.648Z,-0.23
2019-01-13T23:39:12.071Z,-0.23
2019-01-13T23:41:44.453Z,-0.17
2019-01-13T23:44:14.004Z,-0.24
2019-01-13T23:46:43.406Z,-0.26
2019-01-13T23:49:13.204Z,-0.29
2019-01-13T23:51:42.899Z,-0.34
2019-01-13T23:54:12.295Z,-0.16
2019-01-13T23:56:41.748Z,-0.30
2019-01-13T23:59:11.325Z,-0.28
